EZY4CH EGPH-EKCH
Flight info
| Callsign | EZY4CH |
|---|---|
| Flight time | N/A |
| Altitude | 39000 |
| Route | TLA Y96 OTBUN DCT SURAT DCT PETIL DCT TESPI |
| Aircraft | A20N/M-SDE2E3FGHIRWXY/LB1 |
Departure
| Time | 2026-04-25 10:42 |
|---|---|
| Airport | Edinburgh Airport (EGPH) |
Arrival
| Time | N/A |
|---|---|
| Airport | Copenhagen Kastrup Airport (EKCH) |
| Time | Latitude | Longitude | Altitude | Speed | Heading |
|---|---|---|---|---|---|
| 2026-04-25 10:01 | 55.94703 | -3.36615 | 105 ft | 0 kts | 89° |
| 2026-04-25 10:31 | 55.94703 | -3.36630 | 105 ft | 2 kts | 89° |
| 2026-04-25 10:31 | 55.94702 | -3.36647 | 105 ft | 2 kts | 89° |
| 2026-04-25 10:31 | 55.94700 | -3.36673 | 105 ft | 2 kts | 68° |
| 2026-04-25 10:31 | 55.94693 | -3.36697 | 105 ft | 2 kts | 53° |
| 2026-04-25 10:32 | 55.94683 | -3.36716 | 105 ft | 2 kts | 36° |
| 2026-04-25 10:32 | 55.94670 | -3.36729 | 105 ft | 2 kts | 20° |
| 2026-04-25 10:32 | 55.94656 | -3.36735 | 105 ft | 1 kts | 4° |
| 2026-04-25 10:32 | 55.94649 | -3.36736 | 105 ft | 1 kts | 357° |
| 2026-04-25 10:33 | 55.94647 | -3.36735 | 105 ft | 0 kts | 359° |
| 2026-04-25 10:36 | 55.94650 | -3.36736 | 105 ft | 0 kts | 359° |
| 2026-04-25 10:36 | 55.94661 | -3.36736 | 105 ft | 2 kts | 359° |
| 2026-04-25 10:36 | 55.94681 | -3.36737 | 105 ft | 3 kts | 359° |
| 2026-04-25 10:36 | 55.94710 | -3.36737 | 105 ft | 4 kts | 360° |
| 2026-04-25 10:37 | 55.94743 | -3.36741 | 105 ft | 6 kts | 345° |
| 2026-04-25 10:37 | 55.94805 | -3.36780 | 105 ft | 10 kts | 359° |
| 2026-04-25 10:37 | 55.94873 | -3.36783 | 105 ft | 10 kts | 346° |
| 2026-04-25 10:37 | 55.94924 | -3.36847 | 105 ft | 8 kts | 295° |
| 2026-04-25 10:38 | 55.94902 | -3.36964 | 105 ft | 12 kts | 238° |
| 2026-04-25 10:38 | 55.94850 | -3.37115 | 105 ft | 17 kts | 239° |
| 2026-04-25 10:38 | 55.94782 | -3.37317 | 105 ft | 19 kts | 239° |
| 2026-04-25 10:38 | 55.94704 | -3.37543 | 105 ft | 23 kts | 240° |
| 2026-04-25 10:39 | 55.94613 | -3.37804 | 106 ft | 26 kts | 238° |
| 2026-04-25 10:39 | 55.94532 | -3.38053 | 107 ft | 20 kts | 240° |
| 2026-04-25 10:39 | 55.94460 | -3.38266 | 109 ft | 20 kts | 239° |
| 2026-04-25 10:39 | 55.94390 | -3.38471 | 112 ft | 17 kts | 239° |
| 2026-04-25 10:40 | 55.94333 | -3.38642 | 113 ft | 14 kts | 239° |
| 2026-04-25 10:40 | 55.94286 | -3.38786 | 114 ft | 10 kts | 247° |
| 2026-04-25 10:40 | 55.94302 | -3.38878 | 115 ft | 8 kts | 318° |
| 2026-04-25 10:40 | 55.94356 | -3.38942 | 115 ft | 10 kts | 331° |
| 2026-04-25 10:41 | 55.94411 | -3.38969 | 115 ft | 6 kts | 30° |
| 2026-04-25 10:41 | 55.94466 | -3.38826 | 114 ft | 35 kts | 59° |
| 2026-04-25 10:41 | 55.94720 | -3.38071 | 107 ft | 105 kts | 58° |
| 2026-04-25 10:41 | 55.95202 | -3.36648 | 110 ft | 159 kts | 60° |
| 2026-04-25 10:42 | 55.95794 | -3.34911 | 653 ft | 167 kts | 57° |
| 2026-04-25 10:42 | 55.96520 | -3.33357 | 1490 ft | 165 kts | 45° |
| 2026-04-25 10:42 | 55.97393 | -3.31986 | 2145 ft | 176 kts | 42° |
| 2026-04-25 10:42 | 55.98346 | -3.30531 | 2720 ft | 191 kts | 40° |
| 2026-04-25 10:43 | 55.99391 | -3.28948 | 3297 ft | 208 kts | 40° |
| 2026-04-25 10:43 | 56.00524 | -3.27163 | 3820 ft | 230 kts | 40° |
| 2026-04-25 10:43 | 56.01756 | -3.25179 | 4474 ft | 247 kts | 41° |
| 2026-04-25 10:43 | 56.03024 | -3.23068 | 5191 ft | 247 kts | 41° |
| 2026-04-25 10:44 | 56.04244 | -3.21013 | 5708 ft | 239 kts | 45° |
| 2026-04-25 10:44 | 56.05144 | -3.18511 | 5957 ft | 241 kts | 63° |
| 2026-04-25 10:44 | 56.05784 | -3.15767 | 5961 ft | 243 kts | 74° |
| 2026-04-25 10:44 | 56.05709 | -3.12785 | 5948 ft | 247 kts | 113° |
| 2026-04-25 10:45 | 56.04620 | -3.10482 | 5964 ft | 247 kts | 152° |
| 2026-04-25 10:45 | 56.02982 | -3.09835 | 5970 ft | 243 kts | 189° |
| 2026-04-25 10:45 | 56.01351 | -3.10696 | 6205 ft | 247 kts | 207° |
| 2026-04-25 10:45 | 55.99810 | -3.11941 | 6990 ft | 246 kts | 206° |
| 2026-04-25 10:46 | 55.98226 | -3.13056 | 7718 ft | 248 kts | 202° |
| 2026-04-25 10:46 | 55.96571 | -3.14020 | 8374 ft | 253 kts | 199° |
| 2026-04-25 10:46 | 55.94880 | -3.14877 | 9037 ft | 259 kts | 198° |
| 2026-04-25 10:46 | 55.93110 | -3.15724 | 9751 ft | 270 kts | 198° |
| 2026-04-25 10:47 | 55.91264 | -3.16588 | 10276 ft | 288 kts | 198° |
| 2026-04-25 10:47 | 55.89259 | -3.17520 | 10780 ft | 306 kts | 197° |
| 2026-04-25 10:47 | 55.87171 | -3.18480 | 11467 ft | 316 kts | 197° |
| 2026-04-25 10:47 | 55.85051 | -3.19451 | 12309 ft | 319 kts | 197° |
| 2026-04-25 10:48 | 55.82899 | -3.20434 | 13135 ft | 323 kts | 197° |
| 2026-04-25 10:48 | 55.80731 | -3.21425 | 13909 ft | 327 kts | 197° |
| 2026-04-25 10:48 | 55.78524 | -3.22434 | 14694 ft | 331 kts | 197° |
| 2026-04-25 10:48 | 55.76308 | -3.23443 | 15466 ft | 334 kts | 196° |
| 2026-04-25 10:49 | 55.74054 | -3.24472 | 16261 ft | 336 kts | 196° |
| 2026-04-25 10:49 | 55.71815 | -3.25492 | 17037 ft | 338 kts | 196° |
| 2026-04-25 10:49 | 55.69531 | -3.26529 | 17813 ft | 339 kts | 196° |
| 2026-04-25 10:49 | 55.67262 | -3.27548 | 18561 ft | 341 kts | 195° |
| 2026-04-25 10:50 | 55.64984 | -3.28567 | 19267 ft | 343 kts | 195° |
| 2026-04-25 10:50 | 55.62662 | -3.29602 | 19955 ft | 346 kts | 195° |
| 2026-04-25 10:50 | 55.60311 | -3.30653 | 20488 ft | 354 kts | 195° |
| 2026-04-25 10:50 | 55.57931 | -3.31716 | 21074 ft | 359 kts | 195° |
| 2026-04-25 10:51 | 55.55456 | -3.32550 | 21661 ft | 364 kts | 182° |
| 2026-04-25 10:51 | 55.52974 | -3.31866 | 22245 ft | 368 kts | 160° |
| 2026-04-25 10:51 | 55.50776 | -3.29608 | 22867 ft | 371 kts | 139° |
| 2026-04-25 10:51 | 55.49164 | -3.26064 | 23440 ft | 375 kts | 118° |
| 2026-04-25 10:52 | 55.48364 | -3.21756 | 23999 ft | 379 kts | 101° |
| 2026-04-25 10:52 | 55.47920 | -3.17200 | 24573 ft | 382 kts | 100° |
| 2026-04-25 10:52 | 55.47467 | -3.12587 | 25088 ft | 386 kts | 101° |
| 2026-04-25 10:52 | 55.46983 | -3.07890 | 25599 ft | 390 kts | 101° |
| 2026-04-25 10:53 | 55.46433 | -3.03205 | 26111 ft | 393 kts | 105° |
| 2026-04-25 10:53 | 55.45589 | -2.98647 | 26592 ft | 396 kts | 112° |
| 2026-04-25 10:53 | 55.44421 | -2.94263 | 27069 ft | 399 kts | 118° |
| 2026-04-25 10:53 | 55.43080 | -2.89994 | 27559 ft | 402 kts | 120° |
| 2026-04-25 10:54 | 55.41701 | -2.85724 | 28007 ft | 405 kts | 120° |
| 2026-04-25 10:54 | 55.40309 | -2.81414 | 28467 ft | 408 kts | 120° |
| 2026-04-25 10:54 | 55.38906 | -2.77053 | 28934 ft | 410 kts | 120° |
| 2026-04-25 10:54 | 55.37505 | -2.72684 | 29364 ft | 413 kts | 120° |
| 2026-04-25 10:55 | 55.36095 | -2.68291 | 29767 ft | 416 kts | 120° |
| 2026-04-25 10:55 | 55.34683 | -2.63892 | 30155 ft | 419 kts | 120° |
| 2026-04-25 10:55 | 55.33241 | -2.59416 | 30541 ft | 422 kts | 120° |
| 2026-04-25 10:55 | 55.31820 | -2.54930 | 30934 ft | 425 kts | 117° |
| 2026-04-25 10:56 | 55.30641 | -2.50132 | 31289 ft | 429 kts | 109° |
| 2026-04-25 10:56 | 55.29842 | -2.45146 | 31625 ft | 432 kts | 101° |
| 2026-04-25 10:56 | 55.29423 | -2.39910 | 31953 ft | 435 kts | 93° |
| 2026-04-25 10:56 | 55.29379 | -2.35752 | 32207 ft | 437 kts | 86° |
| 2026-04-25 10:57 | 55.29404 | -2.34798 | 32264 ft | 437 kts | 86° |
| 2026-04-25 10:57 | 55.29623 | -2.31193 | 32522 ft | 437 kts | 81° |
| 2026-04-25 10:57 | 55.29684 | -2.30531 | 32576 ft | 437 kts | 79° |